Portada
METAR-TAF:

METAR-TAF

Aeropuertos :

San Antonio del Táchira, Venezuela

Aeropuerto Internacional Juan Vicente Gómez

latitud: 07-51N, longitud: 072-27W, altitud: 377 m

METAR: falta

Hora: 01:50 (05:50 UTC)

Pronóstico

El informe se hizo hace 1 hora y 50 minutos, a las 04:00 UTC
Pronóstico válido del 17 a las 06 UTC al 18 a las 06 UTC
Viento 4 kt del oeste-suroeste
Visibilidad: 7000 m
Cielo nuboso a una altura de 2000 ft
niebla en las proximidades
Temporalmente
del 17 a las 06 UTC al 17 a las 12 UTC
Viento kt del norte
Visibilidad: 8000 m
Cielo cubierto a una altura de 2000 ft
lluvia

TAF: SVSA 170400Z 1706/1806 25004KT 7000 VCFG BKN020 TX30/18Z TN21/10Z TEMPO 1706/1712 00000KT 8000 RA OVC020

Observaciones y pronósticos meteorológicos de más de 4000 aeropuertos (mensajes METAR y TAF).

Los puntos amarillos y rojos representan las estaciones disponibles.

Ponga el ratón en el punto deseado para ver el nombre de la estación.

Haga clic para ver las observaciones y los pronósticos meteorológicos.

Para cambiar el mapa : haga clic en los botones verdes con una cruz de color negro para hacer un zoom, en el botón verde con un guión para alejar o en las flechas verdes para mapas adyacentes.


METAR-TAF: